sensor_id;sensor_type;location;lat;lon;timestamp;pressure;altitude;pressure_sealevel;temperature;humidity
51468;BME280;37545;45.302;-122.946;2024-01-30T00:01:56;100676.84;;;15.78;100.00
51468;BME280;37545;45.302;-122.946;2024-01-30T00:04:25;100677.75;;;15.77;100.00
51468;BME280;37545;45.302;-122.946;2024-01-30T00:06:59;100670.78;;;15.77;100.00
51468;BME280;37545;45.302;-122.946;2024-01-30T00:09:30;100664.69;;;15.77;100.00
51468;BME280;37545;45.302;-122.946;2024-01-30T00:11:59;100671.66;;;15.76;100.00
51468;BME280;37545;45.302;-122.946;2024-01-30T00:14:27;100674.25;;;15.75;100.00
51468;BME280;37545;45.302;-122.946;2024-01-30T00:17:10;100652.44;;;15.69;100.00
51468;BME280;37545;45.302;-122.946;2024-01-30T00:19:44;100654.13;;;15.66;100.00
51468;BME280;37545;45.302;-122.946;2024-01-30T00:22:16;100643.69;;;15.61;100.00
51468;BME280;37545;45.302;-122.946;2024-01-30T00:24:53;100648.88;;;15.58;100.00
51468;BME280;37545;45.302;-122.946;2024-01-30T00:27:22;100632.31;;;15.52;100.00
51468;BME280;37545;45.302;-122.946;2024-01-30T00:29:50;100642.72;;;15.50;100.00
51468;BME280;37545;45.302;-122.946;2024-01-30T00:32:33;100655.72;;;15.45;100.00
51468;BME280;37545;45.302;-122.946;2024-01-30T00:35:01;100646.97;;;15.39;100.00
51468;BME280;37545;45.302;-122.946;2024-01-30T00:37:30;100647.78;;;15.32;100.00
51468;BME280;37545;45.302;-122.946;2024-01-30T00:40:10;100645.16;;;15.28;100.00
51468;BME280;37545;45.302;-122.946;2024-01-30T00:42:42;100636.44;;;15.23;100.00
51468;BME280;37545;45.302;-122.946;2024-01-30T00:45:23;100636.41;;;15.20;100.00
51468;BME280;37545;45.302;-122.946;2024-01-30T00:47:52;100653.78;;;15.23;100.00
51468;BME280;37545;45.302;-122.946;2024-01-30T00:50:22;100636.38;;;15.14;100.00
51468;BME280;37545;45.302;-122.946;2024-01-30T00:53:04;100640.72;;;15.17;100.00
51468;BME280;37545;45.302;-122.946;2024-01-30T00:55:36;100645.06;;;15.15;100.00
51468;BME280;37545;45.302;-122.946;2024-01-30T00:58:05;100661.50;;;15.09;100.00
51468;BME280;37545;45.302;-122.946;2024-01-30T01:00:34;100677.91;;;14.99;100.00
51468;BME280;37545;45.302;-122.946;2024-01-30T01:03:07;100694.34;;;14.93;100.00
51468;BME280;37545;45.302;-122.946;2024-01-30T01:05:35;100691.63;;;14.82;100.00
51468;BME280;37545;45.302;-122.946;2024-01-30T01:08:05;100698.53;;;14.79;100.00
51468;BME280;37545;45.302;-122.946;2024-01-30T01:10:35;100706.31;;;14.77;100.00
51468;BME280;37545;45.302;-122.946;2024-01-30T01:13:15;100705.38;;;14.72;100.00
51468;BME280;37545;45.302;-122.946;2024-01-30T01:15:44;100711.47;;;14.73;100.00
51468;BME280;37545;45.302;-122.946;2024-01-30T01:18:13;100718.41;;;14.72;100.00
51468;BME280;37545;45.302;-122.946;2024-01-30T01:20:44;100722.66;;;14.65;100.00
51468;BME280;37545;45.302;-122.946;2024-01-30T01:23:13;100719.19;;;14.65;100.00
51468;BME280;37545;45.302;-122.946;2024-01-30T01:25:44;100742.59;;;14.62;100.00
51468;BME280;37545;45.302;-122.946;2024-01-30T01:28:13;100752.13;;;14.60;100.00
51468;BME280;37545;45.302;-122.946;2024-01-30T01:30:52;100744.25;;;14.55;100.00
51468;BME280;37545;45.302;-122.946;2024-01-30T01:33:25;100738.94;;;14.51;100.00
51468;BME280;37545;45.302;-122.946;2024-01-30T01:35:54;100744.16;;;14.52;100.00
51468;BME280;37545;45.302;-122.946;2024-01-30T01:38:31;100747.56;;;14.46;100.00
51468;BME280;37545;45.302;-122.946;2024-01-30T01:41:02;100761.50;;;14.49;100.00
51468;BME280;37545;45.302;-122.946;2024-01-30T01:43:31;100774.44;;;14.44;100.00
51468;BME280;37545;45.302;-122.946;2024-01-30T01:46:00;100782.22;;;14.41;100.00
51468;BME280;37545;45.302;-122.946;2024-01-30T01:48:41;100794.38;;;14.42;100.00
51468;BME280;37545;45.302;-122.946;2024-01-30T01:51:11;100786.53;;;14.40;100.00
51468;BME280;37545;45.302;-122.946;2024-01-30T01:53:40;100778.72;;;14.39;100.00
51468;BME280;37545;45.302;-122.946;2024-01-30T01:56:23;100790.75;;;14.32;100.00
51468;BME280;37545;45.302;-122.946;2024-01-30T01:58:55;100795.06;;;14.30;100.00
51468;BME280;37545;45.302;-122.946;2024-01-30T02:01:24;100792.47;;;14.30;100.00
51468;BME280;37545;45.302;-122.946;2024-01-30T02:04:04;100784.69;;;14.32;100.00
51468;BME280;37545;45.302;-122.946;2024-01-30T02:06:34;100788.09;;;14.29;100.00
51468;BME280;37545;45.302;-122.946;2024-01-30T02:09:05;100789.88;;;14.30;100.00
51468;BME280;37545;45.302;-122.946;2024-01-30T02:11:37;100793.25;;;14.26;100.00
51468;BME280;37545;45.302;-122.946;2024-01-30T02:14:08;100796.66;;;14.22;100.00
51468;BME280;37545;45.302;-122.946;2024-01-30T02:16:37;100801.03;;;14.23;100.00
51468;BME280;37545;45.302;-122.946;2024-01-30T02:19:08;100806.25;;;14.23;100.00
51468;BME280;37545;45.302;-122.946;2024-01-30T02:21:42;100808.81;;;14.21;100.00
51468;BME280;37545;45.302;-122.946;2024-01-30T02:24:10;100801.84;;;14.19;100.00
51468;BME280;37545;45.302;-122.946;2024-01-30T02:26:39;100807.03;;;14.19;100.00
51468;BME280;37545;45.302;-122.946;2024-01-30T02:29:08;100810.53;;;14.21;100.00
51468;BME280;37545;45.302;-122.946;2024-01-30T02:31:48;100799.16;;;14.14;100.00
51468;BME280;37545;45.302;-122.946;2024-01-30T02:34:16;100804.41;;;14.16;100.00
51468;BME280;37545;45.302;-122.946;2024-01-30T02:36:47;100819.16;;;14.17;100.00
51468;BME280;37545;45.302;-122.946;2024-01-30T02:39:24;100833.84;;;14.13;100.00
51468;BME280;37545;45.302;-122.946;2024-01-30T02:41:54;100843.28;;;14.08;100.00
51468;BME280;37545;45.302;-122.946;2024-01-30T02:44:23;100830.28;;;14.07;100.00
51468;BME280;37545;45.302;-122.946;2024-01-30T02:46:59;100825.88;;;14.04;100.00
51468;BME280;37545;45.302;-122.946;2024-01-30T02:49:28;100830.00;;;13.91;100.00
51468;BME280;37545;45.302;-122.946;2024-01-30T02:51:58;100825.56;;;13.86;100.00
51468;BME280;37545;45.302;-122.946;2024-01-30T02:54:27;100832.50;;;13.85;100.00
51468;BME280;37545;45.302;-122.946;2024-01-30T02:57:00;100826.38;;;13.83;100.00
51468;BME280;37545;45.302;-122.946;2024-01-30T02:59:28;100826.31;;;13.78;100.00
51468;BME280;37545;45.302;-122.946;2024-01-30T03:01:59;100825.31;;;13.70;100.00
51468;BME280;37545;45.302;-122.946;2024-01-30T03:04:28;100828.75;;;13.68;100.00
51468;BME280;37545;45.302;-122.946;2024-01-30T03:06:59;100821.84;;;13.71;100.00
51468;BME280;37545;45.302;-122.946;2024-01-30T03:09:30;100829.56;;;13.67;100.00
51468;BME280;37545;45.302;-122.946;2024-01-30T03:12:00;100830.31;;;13.59;100.00
51468;BME280;37545;45.302;-122.946;2024-01-30T03:14:31;100825.91;;;13.55;100.00
51468;BME280;37545;45.302;-122.946;2024-01-30T03:17:08;100842.28;;;13.51;100.00
51468;BME280;37545;45.302;-122.946;2024-01-30T03:19:37;100861.38;;;13.52;100.00
51468;BME280;37545;45.302;-122.946;2024-01-30T03:22:08;100863.97;;;13.52;100.00
51468;BME280;37545;45.302;-122.946;2024-01-30T03:24:37;100865.75;;;13.56;100.00
51468;BME280;37545;45.302;-122.946;2024-01-30T03:27:09;100877.88;;;13.55;100.00
51468;BME280;37545;45.302;-122.946;2024-01-30T03:29:38;100889.09;;;13.53;100.00
51468;BME280;37545;45.302;-122.946;2024-01-30T03:32:06;100890.72;;;13.46;100.00
51468;BME280;37545;45.302;-122.946;2024-01-30T03:34:35;100904.56;;;13.45;100.00
51468;BME280;37545;45.302;-122.946;2024-01-30T03:37:04;100909.78;;;13.47;100.00
51468;BME280;37545;45.302;-122.946;2024-01-30T03:39:39;100920.22;;;13.48;100.00
51468;BME280;37545;45.302;-122.946;2024-01-30T03:42:09;100921.06;;;13.47;100.00
51468;BME280;37545;45.302;-122.946;2024-01-30T03:44:38;100926.28;;;13.47;100.00
51468;BME280;37545;45.302;-122.946;2024-01-30T03:47:07;100924.53;;;13.48;100.00
51468;BME280;37545;45.302;-122.946;2024-01-30T03:49:40;100912.47;;;13.50;100.00
51468;BME280;37545;45.302;-122.946;2024-01-30T03:52:09;100925.56;;;13.56;100.00
51468;BME280;37545;45.302;-122.946;2024-01-30T03:54:40;100926.50;;;13.59;100.00
51468;BME280;37545;45.302;-122.946;2024-01-30T03:57:11;100925.69;;;13.62;100.00
51468;BME280;37545;45.302;-122.946;2024-01-30T03:59:42;100929.25;;;13.66;100.00
51468;BME280;37545;45.302;-122.946;2024-01-30T04:02:11;100937.03;;;13.66;100.00
51468;BME280;37545;45.302;-122.946;2024-01-30T04:04:40;100946.44;;;13.59;100.00
51468;BME280;37545;45.302;-122.946;2024-01-30T04:07:13;100953.28;;;13.55;100.00
51468;BME280;37545;45.302;-122.946;2024-01-30T04:09:44;100969.69;;;13.53;100.00
51468;BME280;37545;45.302;-122.946;2024-01-30T04:12:12;100964.53;;;13.54;100.00
51468;BME280;37545;45.302;-122.946;2024-01-30T04:14:41;100954.19;;;13.57;100.00
51468;BME280;37545;45.302;-122.946;2024-01-30T04:17:10;100959.44;;;13.60;100.00
51468;BME280;37545;45.302;-122.946;2024-01-30T04:19:50;100961.25;;;13.63;100.00
51468;BME280;37545;45.302;-122.946;2024-01-30T04:22:19;100962.09;;;13.62;100.00
51468;BME280;37545;45.302;-122.946;2024-01-30T04:24:53;100961.94;;;13.54;100.00
51468;BME280;37545;45.302;-122.946;2024-01-30T04:27:31;100957.63;;;13.55;100.00
51468;BME280;37545;45.302;-122.946;2024-01-30T04:29:59;100980.19;;;13.57;100.00
51468;BME280;37545;45.302;-122.946;2024-01-30T04:32:28;100966.28;;;13.54;100.00
51468;BME280;37545;45.302;-122.946;2024-01-30T04:34:57;100977.56;;;13.56;100.00
51468;BME280;37545;45.302;-122.946;2024-01-30T04:37:31;100992.22;;;13.52;100.00
51468;BME280;37545;45.302;-122.946;2024-01-30T04:40:03;100980.91;;;13.50;100.00
51468;BME280;37545;45.302;-122.946;2024-01-30T04:42:32;100999.16;;;13.52;100.00
51468;BME280;37545;45.302;-122.946;2024-01-30T04:45:11;101006.91;;;13.50;100.00
51468;BME280;37545;45.302;-122.946;2024-01-30T04:47:43;101001.66;;;13.47;100.00
51468;BME280;37545;45.302;-122.946;2024-01-30T04:50:15;101009.47;;;13.49;100.00
51468;BME280;37545;45.302;-122.946;2024-01-30T04:52:49;100977.34;;;13.45;100.00
51468;BME280;37545;45.302;-122.946;2024-01-30T04:55:20;100983.25;;;13.38;100.00
51468;BME280;37545;45.302;-122.946;2024-01-30T04:57:49;100992.50;;;13.27;100.00
51468;BME280;37545;45.302;-122.946;2024-01-30T05:00:18;100998.44;;;13.21;100.00
51468;BME280;37545;45.302;-122.946;2024-01-30T05:02:54;101001.03;;;13.21;100.00
51468;BME280;37545;45.302;-122.946;2024-01-30T05:05:23;100993.13;;;13.15;100.00
51468;BME280;37545;45.302;-122.946;2024-01-30T05:07:51;100992.16;;;13.11;100.00
51468;BME280;37545;45.302;-122.946;2024-01-30T05:10:28;100985.22;;;13.10;100.00
51468;BME280;37545;45.302;-122.946;2024-01-30T05:12:57;100993.84;;;13.09;100.00
51468;BME280;37545;45.302;-122.946;2024-01-30T05:15:26;101003.31;;;13.06;100.00
51468;BME280;37545;45.302;-122.946;2024-01-30T05:17:54;101005.63;;;12.95;100.00
51468;BME280;37545;45.302;-122.946;2024-01-30T05:20:33;101003.84;;;12.94;100.00
51468;BME280;37545;45.302;-122.946;2024-01-30T05:23:02;101018.41;;;12.87;100.00
51468;BME280;37545;45.302;-122.946;2024-01-30T05:25:33;101017.41;;;12.81;100.00
51468;BME280;37545;45.302;-122.946;2024-01-30T05:28:12;101026.09;;;12.83;100.00
51468;BME280;37545;45.302;-122.946;2024-01-30T05:30:41;101026.09;;;12.83;100.00
51468;BME280;37545;45.302;-122.946;2024-01-30T05:33:10;101027.00;;;12.85;100.00
51468;BME280;37545;45.302;-122.946;2024-01-30T05:35:39;101013.00;;;12.78;100.00
51468;BME280;37545;45.302;-122.946;2024-01-30T05:38:15;101016.50;;;12.80;100.00
51468;BME280;37545;45.302;-122.946;2024-01-30T05:40:46;101016.50;;;12.78;100.00
51468;BME280;37545;45.302;-122.946;2024-01-30T05:43:17;101022.59;;;12.81;100.00
51468;BME280;37545;45.302;-122.946;2024-01-30T05:45:53;101020.78;;;12.76;100.00
51468;BME280;37545;45.302;-122.946;2024-01-30T05:48:22;101019.09;;;12.78;100.00
51468;BME280;37545;45.302;-122.946;2024-01-30T05:50:50;101022.59;;;12.81;100.00
51468;BME280;37545;45.302;-122.946;2024-01-30T05:53:19;101013.81;;;12.75;100.00
51468;BME280;37545;45.302;-122.946;2024-01-30T05:55:55;101015.56;;;12.76;100.00
51468;BME280;37545;45.302;-122.946;2024-01-30T05:58:24;101010.50;;;12.81;100.00
51468;BME280;37545;45.302;-122.946;2024-01-30T06:00:52;101010.50;;;12.83;100.00
51468;BME280;37545;45.302;-122.946;2024-01-30T06:03:21;101009.63;;;12.82;100.00
51468;BME280;37545;45.302;-122.946;2024-01-30T06:05:50;101015.56;;;12.76;100.00
51468;BME280;37545;45.302;-122.946;2024-01-30T06:08:29;101025.88;;;12.73;100.00
51468;BME280;37545;45.302;-122.946;2024-01-30T06:11:00;101024.19;;;12.75;100.00
51468;BME280;37545;45.302;-122.946;2024-01-30T06:13:31;101032.84;;;12.74;100.00
51468;BME280;37545;45.302;-122.946;2024-01-30T06:16:08;101031.16;;;12.76;100.00
51468;BME280;37545;45.302;-122.946;2024-01-30T06:18:38;101035.38;;;12.73;100.00
51468;BME280;37545;45.302;-122.946;2024-01-30T06:21:07;101034.56;;;12.75;100.00
51468;BME280;37545;45.302;-122.946;2024-01-30T06:23:46;101036.31;;;12.75;100.00
51468;BME280;37545;45.302;-122.946;2024-01-30T06:26:17;101030.28;;;12.76;100.00
51468;BME280;37545;45.302;-122.946;2024-01-30T06:28:45;101028.56;;;12.78;100.00
51468;BME280;37545;45.302;-122.946;2024-01-30T06:31:14;101023.47;;;12.81;100.00
51468;BME280;37545;45.302;-122.946;2024-01-30T06:33:48;101017.38;;;12.79;100.00
51468;BME280;37545;45.302;-122.946;2024-01-30T06:36:16;101024.34;;;12.82;100.00
51468;BME280;37545;45.302;-122.946;2024-01-30T06:38:45;101028.69;;;12.83;100.00
51468;BME280;37545;45.302;-122.946;2024-01-30T06:41:28;101018.31;;;12.83;100.00
51468;BME280;37545;45.302;-122.946;2024-01-30T06:43:56;101025.28;;;12.84;100.00
51468;BME280;37545;45.302;-122.946;2024-01-30T06:46:25;101027.06;;;12.86;100.00
51468;BME280;37545;45.302;-122.946;2024-01-30T06:48:56;101010.50;;;12.83;100.00
51468;BME280;37545;45.302;-122.946;2024-01-30T06:51:27;101018.25;;;12.79;100.00
51468;BME280;37545;45.302;-122.946;2024-01-30T06:53:56;101018.13;;;12.75;100.00
51468;BME280;37545;45.302;-122.946;2024-01-30T06:56:26;101018.88;;;12.71;100.00
51468;BME280;37545;45.302;-122.946;2024-01-30T06:58:55;101030.81;;;12.64;100.00
51468;BME280;37545;45.302;-122.946;2024-01-30T07:01:33;101018.78;;;12.66;100.00
51468;BME280;37545;45.302;-122.946;2024-01-30T07:04:02;101008.38;;;12.66;100.00
51468;BME280;37545;45.302;-122.946;2024-01-30T07:06:31;101018.78;;;12.66;100.00
51468;BME280;37545;45.302;-122.946;2024-01-30T07:09:07;100999.66;;;12.63;100.00
51468;BME280;37545;45.302;-122.946;2024-01-30T07:11:38;101019.47;;;12.59;100.00
51468;BME280;37545;45.302;-122.946;2024-01-30T07:14:07;101017.63;;;12.55;100.00
51468;BME280;37545;45.302;-122.946;2024-01-30T07:16:36;101023.66;;;12.54;100.00
51468;BME280;37545;45.302;-122.946;2024-01-30T07:19:08;101028.69;;;12.48;100.00
51468;BME280;37545;45.302;-122.946;2024-01-30T07:21:38;101042.50;;;12.47;100.00
51468;BME280;37545;45.302;-122.946;2024-01-30T07:24:07;101033.97;;;12.51;100.00
51468;BME280;37545;45.302;-122.946;2024-01-30T07:26:40;101026.25;;;12.54;100.00
51468;BME280;37545;45.302;-122.946;2024-01-30T07:29:20;101014.09;;;12.51;100.00
51468;BME280;37545;45.302;-122.946;2024-01-30T07:31:49;101022.69;;;12.50;100.00
51468;BME280;37545;45.302;-122.946;2024-01-30T07:34:18;101020.06;;;12.49;100.00
51468;BME280;37545;45.302;-122.946;2024-01-30T07:36:50;101007.84;;;12.45;100.00
51468;BME280;37545;45.302;-122.946;2024-01-30T07:39:19;101005.22;;;12.43;100.00
51468;BME280;37545;45.302;-122.946;2024-01-30T07:41:49;100999.22;;;12.46;100.00
51468;BME280;37545;45.302;-122.946;2024-01-30T07:44:18;101013.09;;;12.48;100.00
51468;BME280;37545;45.302;-122.946;2024-01-30T07:46:47;100997.53;;;12.48;100.00
51468;BME280;37545;45.302;-122.946;2024-01-30T07:49:17;100996.72;;;12.50;100.00
51468;BME280;37545;45.302;-122.946;2024-01-30T07:51:46;101007.16;;;12.52;100.00
51468;BME280;37545;45.302;-122.946;2024-01-30T07:54:15;100998.50;;;12.51;100.00
51468;BME280;37545;45.302;-122.946;2024-01-30T07:56:44;100982.13;;;12.54;100.00
51468;BME280;37545;45.302;-122.946;2024-01-30T07:59:26;100984.78;;;12.57;100.00
51468;BME280;37545;45.302;-122.946;2024-01-30T08:01:55;100982.13;;;12.54;100.00
51468;BME280;37545;45.302;-122.946;2024-01-30T08:04:23;100976.09;;;12.55;100.00
51468;BME280;37545;45.302;-122.946;2024-01-30T08:06:52;100978.78;;;12.58;100.00
51468;BME280;37545;45.302;-122.946;2024-01-30T08:09:26;100985.72;;;12.59;100.00
51468;BME280;37545;45.302;-122.946;2024-01-30T08:11:55;100984.72;;;12.54;100.00
51468;BME280;37545;45.302;-122.946;2024-01-30T08:14:25;100983.00;;;12.54;100.00
51468;BME280;37545;45.302;-122.946;2024-01-30T08:16:54;100976.03;;;12.52;100.00
51468;BME280;37545;45.302;-122.946;2024-01-30T08:19:34;100968.16;;;12.49;100.00
51468;BME280;37545;45.302;-122.946;2024-01-30T08:22:02;100964.66;;;12.48;100.00
51468;BME280;37545;45.302;-122.946;2024-01-30T08:24:34;100971.63;;;12.49;100.00
51468;BME280;37545;45.302;-122.946;2024-01-30T08:27:08;100972.31;;;12.42;100.00
51468;BME280;37545;45.302;-122.946;2024-01-30T08:29:41;100980.00;;;12.38;100.00
51468;BME280;37545;45.302;-122.946;2024-01-30T08:32:10;100978.88;;;12.28;100.00
51468;BME280;37545;45.302;-122.946;2024-01-30T08:34:39;100972.72;;;12.24;100.00
51468;BME280;37545;45.302;-122.946;2024-01-30T08:37:13;100975.25;;;12.23;100.00
51468;BME280;37545;45.302;-122.946;2024-01-30T08:39:43;100979.66;;;12.25;100.00
51468;BME280;37545;45.302;-122.946;2024-01-30T08:42:12;100977.97;;;12.27;100.00
51468;BME280;37545;45.302;-122.946;2024-01-30T08:44:49;100969.38;;;12.28;100.00
51468;BME280;37545;45.302;-122.946;2024-01-30T08:47:19;100972.78;;;12.27;100.00
51468;BME280;37545;45.302;-122.946;2024-01-30T08:49:48;100972.72;;;12.24;100.00
51468;BME280;37545;45.302;-122.946;2024-01-30T08:52:17;100964.88;;;12.21;100.00
51468;BME280;37545;45.302;-122.946;2024-01-30T08:54:54;100957.91;;;12.20;100.00
51468;BME280;37545;45.302;-122.946;2024-01-30T08:57:22;100954.38;;;12.17;100.00
51468;BME280;37545;45.302;-122.946;2024-01-30T08:59:56;100946.59;;;12.17;100.00
51468;BME280;37545;45.302;-122.946;2024-01-30T09:02:30;100956.19;;;12.21;100.00
51468;BME280;37545;45.302;-122.946;2024-01-30T09:04:59;100957.03;;;12.20;100.00
51468;BME280;37545;45.302;-122.946;2024-01-30T09:07:28;100950.00;;;12.14;100.00
51468;BME280;37545;45.302;-122.946;2024-01-30T09:09:57;100949.09;;;12.13;100.00
51468;BME280;37545;45.302;-122.946;2024-01-30T09:12:28;100941.34;;;12.15;100.00
51468;BME280;37545;45.302;-122.946;2024-01-30T09:14:59;100946.47;;;12.12;100.00
51468;BME280;37545;45.302;-122.946;2024-01-30T09:17:27;100946.59;;;12.17;100.00
51468;BME280;37545;45.302;-122.946;2024-01-30T09:19:56;100926.72;;;12.17;100.00
51468;BME280;37545;45.302;-122.946;2024-01-30T09:22:25;100938.75;;;12.15;100.00
51468;BME280;37545;45.302;-122.946;2024-01-30T09:25:05;100936.16;;;12.15;100.00
51468;BME280;37545;45.302;-122.946;2024-01-30T09:27:34;100926.75;;;12.19;100.00
51468;BME280;37545;45.302;-122.946;2024-01-30T09:30:19;100938.81;;;12.18;100.00
51468;BME280;37545;45.302;-122.946;2024-01-30T09:32:47;100936.97;;;12.12;100.00
51468;BME280;37545;45.302;-122.946;2024-01-30T09:35:16;100931.78;;;12.12;100.00
51468;BME280;37545;45.302;-122.946;2024-01-30T09:37:45;100936.84;;;12.08;100.00
51468;BME280;37545;45.302;-122.946;2024-01-30T09:41:02;100941.94;;;12.05;100.00
51468;BME280;37545;45.302;-122.946;2024-01-30T09:43:33;100942.72;;;12.01;100.00
51468;BME280;37545;45.302;-122.946;2024-01-30T09:46:07;100947.78;;;11.98;100.00
51468;BME280;37545;45.302;-122.946;2024-01-30T09:48:41;100948.66;;;11.97;100.00
51468;BME280;37545;45.302;-122.946;2024-01-30T09:51:10;100951.25;;;11.97;100.00
51468;BME280;37545;45.302;-122.946;2024-01-30T09:53:41;100949.53;;;11.97;100.00
51468;BME280;37545;45.302;-122.946;2024-01-30T09:56:16;100948.69;;;11.98;100.00
51468;BME280;37545;45.302;-122.946;2024-01-30T09:58:45;100941.69;;;11.95;100.00
51468;BME280;37545;45.302;-122.946;2024-01-30T10:01:16;100946.06;;;11.97;100.00
51468;BME280;37545;45.302;-122.946;2024-01-30T10:03:50;100941.66;;;11.94;100.00
51468;BME280;37545;45.302;-122.946;2024-01-30T10:06:22;100940.91;;;11.98;100.00
51468;BME280;37545;45.302;-122.946;2024-01-30T10:08:53;100940.91;;;11.98;100.00
51468;BME280;37545;45.302;-122.946;2024-01-30T10:11:24;100931.28;;;11.94;100.00
51468;BME280;37545;45.302;-122.946;2024-01-30T10:14:06;100949.47;;;11.95;100.00
51468;BME280;37545;45.302;-122.946;2024-01-30T10:16:35;100945.09;;;11.93;100.00
51468;BME280;37545;45.302;-122.946;2024-01-30T10:19:04;100947.66;;;11.91;100.00
51468;BME280;37545;45.302;-122.946;2024-01-30T10:21:46;100940.88;;;11.97;100.00
51468;BME280;37545;45.302;-122.946;2024-01-30T10:24:15;100933.22;;;12.01;100.00
51468;BME280;37545;45.302;-122.946;2024-01-30T10:26:49;100931.50;;;12.02;100.00
51468;BME280;37545;45.302;-122.946;2024-01-30T10:29:21;100928.91;;;12.02;100.00
51468;BME280;37545;45.302;-122.946;2024-01-30T10:31:59;100928.09;;;12.04;100.00
51468;BME280;37545;45.302;-122.946;2024-01-30T10:34:37;100932.41;;;12.04;100.00
51468;BME280;37545;45.302;-122.946;2024-01-30T10:37:09;100938.56;;;12.07;100.00
51468;BME280;37545;45.302;-122.946;2024-01-30T10:39:39;100935.13;;;12.08;100.00
51468;BME280;37545;45.302;-122.946;2024-01-30T10:42:19;100922.09;;;12.07;100.00
51468;BME280;37545;45.302;-122.946;2024-01-30T10:44:57;100923.94;;;12.11;100.00
51468;BME280;37545;45.302;-122.946;2024-01-30T10:47:40;100924.81;;;12.11;100.00
51468;BME280;37545;45.302;-122.946;2024-01-30T10:50:09;100921.41;;;12.12;100.00
51468;BME280;37545;45.302;-122.946;2024-01-30T10:52:39;100911.78;;;12.08;100.00
51468;BME280;37545;45.302;-122.946;2024-01-30T10:55:11;100914.22;;;12.02;100.00
51468;BME280;37545;45.302;-122.946;2024-01-30T10:57:45;100908.16;;;12.02;100.00
51468;BME280;37545;45.302;-122.946;2024-01-30T11:00:15;100908.16;;;12.02;100.00
51468;BME280;37545;45.302;-122.946;2024-01-30T11:02:48;100902.97;;;12.02;100.00
51468;BME280;37545;45.302;-122.946;2024-01-30T11:05:28;100909.91;;;12.03;100.00
51468;BME280;37545;45.302;-122.946;2024-01-30T11:07:58;100909.88;;;12.01;100.00
51468;BME280;37545;45.302;-122.946;2024-01-30T11:10:29;100907.09;;;11.93;100.00
51468;BME280;37545;45.302;-122.946;2024-01-30T11:13:13;100913.09;;;11.92;100.00
51468;BME280;37545;45.302;-122.946;2024-01-30T11:15:42;100916.44;;;11.88;100.00
51468;BME280;37545;45.302;-122.946;2024-01-30T11:18:25;100917.28;;;11.87;100.00
51468;BME280;37545;45.302;-122.946;2024-01-30T11:20:56;100918.97;;;11.87;100.00
51468;BME280;37545;45.302;-122.946;2024-01-30T11:23:28;100915.41;;;11.83;100.00
51468;BME280;37545;45.302;-122.946;2024-01-30T11:26:04;100915.34;;;11.82;100.00
51468;BME280;37545;45.302;-122.946;2024-01-30T11:28:35;100909.22;;;11.78;100.00
51468;BME280;37545;45.302;-122.946;2024-01-30T11:31:06;100919.56;;;11.77;100.00
51468;BME280;37545;45.302;-122.946;2024-01-30T11:33:46;100916.16;;;11.79;100.00
51468;BME280;37545;45.302;-122.946;2024-01-30T11:36:28;100915.34;;;11.82;100.00
51468;BME280;37545;45.302;-122.946;2024-01-30T11:39:01;100901.53;;;11.81;100.00
51468;BME280;37545;45.302;-122.946;2024-01-30T11:41:30;100901.81;;;11.90;100.00
51468;BME280;37545;45.302;-122.946;2024-01-30T11:44:04;100895.88;;;11.94;100.00
51468;BME280;37545;45.302;-122.946;2024-01-30T11:46:44;100871.69;;;11.95;100.00
51468;BME280;37545;45.302;-122.946;2024-01-30T11:49:12;100875.25;;;11.99;100.00
51468;BME280;37545;45.302;-122.946;2024-01-30T11:51:41;100881.28;;;12.00;100.00
51468;BME280;37545;45.302;-122.946;2024-01-30T11:54:10;100873.50;;;11.98;100.00
51468;BME280;37545;45.302;-122.946;2024-01-30T11:56:44;100875.13;;;11.94;100.00
51468;BME280;37545;45.302;-122.946;2024-01-30T11:59:16;100872.53;;;11.94;100.00
51468;BME280;37545;45.302;-122.946;2024-01-30T12:01:44;100870.91;;;11.98;100.00
51468;BME280;37545;45.302;-122.946;2024-01-30T12:04:14;100879.56;;;12.00;100.00
51468;BME280;37545;45.302;-122.946;2024-01-30T12:06:45;100892.59;;;12.02;100.00
51468;BME280;37545;45.302;-122.946;2024-01-30T12:09:13;100882.16;;;11.99;100.00
51468;BME280;37545;45.302;-122.946;2024-01-30T12:11:47;100875.19;;;11.98;100.00
51468;BME280;37545;45.302;-122.946;2024-01-30T12:14:26;100870.91;;;12.00;100.00
51468;BME280;37545;45.302;-122.946;2024-01-30T12:16:55;100876.16;;;12.01;100.00
51468;BME280;37545;45.302;-122.946;2024-01-30T12:19:24;100871.84;;;12.02;100.00
51468;BME280;37545;45.302;-122.946;2024-01-30T12:21:57;100857.09;;;11.99;100.00
51468;BME280;37545;45.302;-122.946;2024-01-30T12:24:29;100861.41;;;11.99;100.00
51468;BME280;37545;45.302;-122.946;2024-01-30T12:26:58;100854.44;;;11.98;100.00
51468;BME280;37545;45.302;-122.946;2024-01-30T12:29:35;100855.41;;;12.01;100.00
51468;BME280;37545;45.302;-122.946;2024-01-30T12:32:06;100851.16;;;12.05;100.00
51468;BME280;37545;45.302;-122.946;2024-01-30T12:34:40;100843.38;;;12.05;100.00